createdAt,value
2022-10-30T00:04:49.490Z,85.4
2022-10-30T00:09:49.713Z,85.7
2022-10-30T00:14:49.665Z,86.1
2022-10-30T00:19:49.614Z,86.2
2022-10-30T00:24:49.597Z,86.3
2022-10-30T00:29:49.428Z,86.8
2022-10-30T00:34:49.362Z,87.4
2022-10-30T00:39:49.457Z,87
2022-10-30T00:44:49.407Z,87.1
2022-10-30T00:49:49.547Z,87.3
2022-10-30T00:54:50.181Z,86.8
2022-10-30T01:59:52.024Z,88.9
2022-10-30T02:04:49.470Z,88.9
2022-10-30T02:09:49.995Z,89.1
2022-10-30T02:14:49.309Z,89.4
2022-10-30T02:19:49.671Z,89.4
2022-10-30T02:24:49.584Z,89.5
2022-10-30T02:29:49.196Z,89.2
2022-10-30T02:34:49.375Z,43
2022-10-30T02:39:49.280Z,43
2022-10-30T02:44:49.503Z,89.8
2022-10-30T02:49:49.186Z,89.9
2022-10-30T02:54:49.198Z,43
2022-10-30T02:59:49.395Z,44
2022-10-30T03:04:49.415Z,44
2022-10-30T03:09:49.395Z,89.9
2022-10-30T03:14:49.473Z,90
2022-10-30T03:19:49.155Z,44
2022-10-30T03:24:49.304Z,44
2022-10-30T03:29:49.203Z,44
2022-10-30T03:34:49.156Z,45
2022-10-30T03:39:49.406Z,45
2022-10-30T03:44:49.339Z,45
2022-10-30T03:49:49.464Z,45
2022-10-30T03:54:49.171Z,45
2022-10-30T03:59:49.359Z,45
2022-10-30T04:04:49.105Z,45
2022-10-30T04:09:49.859Z,45
2022-10-30T04:14:49.217Z,45
2022-10-30T04:19:49.266Z,45
2022-10-30T04:24:49.342Z,45
2022-10-30T04:29:49.268Z,45
2022-10-30T04:34:49.302Z,46
2022-10-30T04:39:49.104Z,46
2022-10-30T04:44:49.148Z,46
2022-10-30T04:49:49.326Z,46
2022-10-30T04:54:49.013Z,46
2022-10-30T04:59:49.082Z,46
2022-10-30T05:04:49.253Z,46
2022-10-30T05:09:49.096Z,46
2022-10-30T05:14:49.216Z,46
2022-10-30T05:19:49.294Z,46
2022-10-30T05:24:49.303Z,46
2022-10-30T05:29:49.289Z,46
2022-10-30T05:34:49.475Z,46
2022-10-30T05:39:49.053Z,46
2022-10-30T05:45:00.802Z,47
2022-10-30T05:49:49.374Z,47
2022-10-30T05:54:49.247Z,47
2022-10-30T05:59:48.846Z,47
2022-10-30T06:04:49.051Z,47
2022-10-30T06:09:49.108Z,47
2022-10-30T06:14:48.951Z,47
2022-10-30T06:19:49.014Z,47
2022-10-30T06:24:49.234Z,47
2022-10-30T06:29:49.328Z,47
2022-10-30T06:34:49.118Z,47
2022-10-30T06:39:48.979Z,47
2022-10-30T06:44:49.168Z,47
2022-10-30T06:49:48.929Z,47
2022-10-30T06:54:49.112Z,47
2022-10-30T06:59:49.098Z,47
2022-10-30T07:04:49.167Z,47
2022-10-30T07:09:48.927Z,47
2022-10-30T07:14:48.951Z,47
2022-10-30T07:19:49.167Z,47
2022-10-30T07:24:49.021Z,48
2022-10-30T07:29:48.858Z,48
2022-10-30T07:34:48.999Z,48
2022-10-30T07:39:49.151Z,48
2022-10-30T07:44:49.024Z,48
2022-10-30T07:49:48.921Z,48
2022-10-30T07:54:48.803Z,48
2022-10-30T08:04:48.816Z,48
2022-10-30T08:09:48.844Z,48
2022-10-30T08:14:49.144Z,48
2022-10-30T08:19:48.853Z,48
2022-10-30T08:24:49.010Z,89.8
2022-10-30T08:29:49.012Z,88.9
2022-10-30T08:34:49.043Z,89.2
2022-10-30T08:39:49.269Z,87.9
2022-10-30T08:44:49.097Z,86.4
2022-10-30T08:49:48.961Z,86.2
2022-10-30T08:54:48.955Z,86.1
2022-10-30T08:59:49.095Z,84.5
2022-10-30T09:04:49.101Z,84.7
2022-10-30T09:09:48.912Z,83.9
2022-10-30T09:14:48.923Z,85.5
2022-10-30T09:24:48.741Z,85
2022-10-30T09:29:49.055Z,84.2
2022-10-30T09:34:49.294Z,83.2
2022-10-30T09:39:49.186Z,83.4
2022-10-30T09:45:08.382Z,83
2022-10-30T09:49:49.096Z,82.9
2022-10-30T09:54:49.043Z,82.6
2022-10-30T09:59:48.744Z,82
2022-10-30T10:04:50.738Z,82.4
2022-10-30T10:09:48.766Z,81.9
2022-10-30T10:14:48.706Z,81.7
2022-10-30T10:19:48.734Z,81.4
2022-10-30T10:24:48.684Z,81.8
2022-10-30T10:29:48.993Z,80.3
2022-10-30T10:34:48.663Z,78.9
2022-10-30T10:39:48.835Z,79.8
2022-10-30T10:44:49.018Z,80.2
2022-10-30T10:50:01.521Z,79.1
2022-10-30T10:54:51.080Z,80
2022-10-30T10:59:52.024Z,78
2022-10-30T11:04:53.500Z,77.5
2022-10-30T11:09:48.808Z,76.3
2022-10-30T11:14:48.881Z,76.2
2022-10-30T11:19:51.916Z,75.5
2022-10-30T11:24:48.948Z,73.6
2022-10-30T11:29:51.584Z,74.5
2022-10-30T11:34:48.679Z,73.2
2022-10-30T11:39:48.872Z,70.7
2022-10-30T11:44:48.762Z,71.5
2022-10-30T11:49:50.967Z,71.5
2022-10-30T11:54:52.042Z,69.2
2022-10-30T11:59:48.680Z,71.3
2022-10-30T12:04:48.548Z,72.3
2022-10-30T12:09:48.916Z,71.2
2022-10-30T12:14:48.842Z,71
2022-10-30T12:19:48.902Z,72.1
2022-10-30T12:24:48.700Z,71
2022-10-30T12:30:07.797Z,71.3
2022-10-30T12:34:52.566Z,71.4
2022-10-30T12:39:54.510Z,72
2022-10-30T12:44:48.738Z,73.3
2022-10-30T12:49:48.630Z,74.8
2022-10-30T12:54:48.639Z,73.6
2022-10-30T12:59:48.742Z,73.5
2022-10-30T13:04:51.583Z,72.7
2022-10-30T13:09:48.609Z,74.1
2022-10-30T13:14:51.345Z,74
2022-10-30T13:19:48.713Z,74.3
2022-10-30T13:24:48.762Z,74.8
2022-10-30T13:29:53.247Z,73.6
2022-10-30T13:34:48.684Z,75
2022-10-30T13:39:48.736Z,74.3
2022-10-30T13:44:48.408Z,75.9
2022-10-30T13:49:48.575Z,76.2
2022-10-30T13:54:48.535Z,77.5
2022-10-30T13:59:54.144Z,77.9
2022-10-30T14:04:48.614Z,77.4
2022-10-30T14:09:48.555Z,77.2
2022-10-30T14:14:49.048Z,76.6
2022-10-30T14:19:48.723Z,76.3
2022-10-30T14:24:48.618Z,76.3
2022-10-30T14:29:48.758Z,75.7
2022-10-30T14:34:48.492Z,76.6
2022-10-30T14:39:48.652Z,77.5
2022-10-30T14:44:48.347Z,77.6
2022-10-30T14:49:53.064Z,78.8
2022-10-30T14:54:48.644Z,79.5
2022-10-30T14:59:48.354Z,80.8
2022-10-30T15:04:55.644Z,82.4
2022-10-30T15:09:58.126Z,83.3
2022-10-30T15:14:54.375Z,84.1
2022-10-30T15:19:48.925Z,84.3
2022-10-30T15:24:48.477Z,85.1
2022-10-30T15:29:48.510Z,85.3
2022-10-30T15:34:48.659Z,84.6
2022-10-30T15:39:48.729Z,83.8
2022-10-30T15:44:48.520Z,83.5
2022-10-30T15:49:48.507Z,83.2
2022-10-30T15:54:48.604Z,82.8
2022-10-30T15:59:48.687Z,82.5
2022-10-30T16:04:48.285Z,81.4
2022-10-30T16:09:52.454Z,82
2022-10-30T16:14:48.551Z,82.6
2022-10-30T16:19:48.411Z,83.2
2022-10-30T16:24:48.534Z,83.4
2022-10-30T16:29:48.657Z,83.2
2022-10-30T16:34:48.392Z,84.5
2022-10-30T16:39:49.486Z,85.2
2022-10-30T16:44:48.238Z,85.6
2022-10-30T16:49:49.662Z,85.9
2022-10-30T16:54:48.526Z,86.3
2022-10-30T16:59:48.641Z,87.1
2022-10-30T17:04:51.242Z,87.9
2022-10-30T17:09:49.246Z,88.8
2022-10-30T17:14:48.184Z,88.6
2022-10-30T17:19:48.600Z,88.2
2022-10-30T17:24:48.191Z,87.9
2022-10-30T17:29:48.350Z,88.3
2022-10-30T17:34:48.379Z,88
2022-10-30T17:39:48.401Z,89.6
2022-10-30T17:44:48.397Z,89.9
2022-10-30T17:49:48.426Z,89.4
2022-10-30T17:54:48.334Z,89.3
2022-10-30T17:59:48.618Z,44
2022-10-30T18:04:48.780Z,44
2022-10-30T18:09:48.232Z,44
2022-10-30T18:14:48.496Z,44
2022-10-30T18:19:48.331Z,44
2022-10-30T18:24:48.226Z,44
2022-10-30T18:29:48.208Z,44
2022-10-30T18:34:48.183Z,88.8
2022-10-30T18:39:48.476Z,87.3
2022-10-30T18:44:48.140Z,88.3
2022-10-30T18:49:48.336Z,44
2022-10-30T18:54:48.180Z,44
2022-10-30T18:59:48.186Z,44
2022-10-30T19:04:48.100Z,44
2022-10-30T19:09:48.454Z,44
2022-10-30T19:14:48.365Z,44
2022-10-30T19:19:48.245Z,44
2022-10-30T19:24:48.571Z,44
2022-10-30T19:29:48.472Z,44
2022-10-30T19:34:48.347Z,44
2022-10-30T19:39:48.105Z,44
2022-10-30T19:44:48.453Z,44
2022-10-30T19:49:48.148Z,44
2022-10-30T19:54:48.410Z,44
2022-10-30T19:59:48.173Z,44
2022-10-30T20:04:48.203Z,44
2022-10-30T20:09:48.330Z,44
2022-10-30T20:14:48.215Z,44
2022-10-30T20:19:48.085Z,44
2022-10-30T20:24:48.437Z,44
2022-10-30T20:29:48.403Z,44
2022-10-30T20:34:48.306Z,44
2022-10-30T20:39:48.366Z,44
2022-10-30T20:44:48.276Z,44
2022-10-30T20:49:48.437Z,44
2022-10-30T20:54:48.163Z,90
2022-10-30T20:59:48.069Z,89.4
2022-10-30T21:04:48.219Z,44
2022-10-30T21:09:47.986Z,43
2022-10-30T21:14:48.246Z,43
2022-10-30T21:19:48.134Z,43
2022-10-30T21:24:48.264Z,43
2022-10-30T21:29:48.228Z,44
2022-10-30T21:34:48.004Z,44
2022-10-30T21:39:48.100Z,44
2022-10-30T21:44:48.484Z,44
2022-10-30T21:49:48.321Z,44
2022-10-30T21:54:48.126Z,44
2022-10-30T21:59:48.207Z,44
2022-10-30T22:04:48.117Z,44
2022-10-30T22:09:48.205Z,44
2022-10-30T22:14:48.136Z,44
2022-10-30T22:19:48.371Z,44
2022-10-30T22:24:48.203Z,44
2022-10-30T22:29:48.176Z,44
2022-10-30T22:34:48.265Z,44
2022-10-30T22:39:48.062Z,44
2022-10-30T22:44:48.104Z,44
2022-10-30T22:49:48.224Z,44
2022-10-30T22:54:48.273Z,44
2022-10-30T22:59:48.126Z,44
2022-10-30T23:04:48.362Z,44
2022-10-30T23:09:47.938Z,44
2022-10-30T23:14:47.916Z,44
2022-10-30T23:19:48.101Z,44
2022-10-30T23:24:47.868Z,44
2022-10-30T23:29:48.082Z,44
2022-10-30T23:34:48.182Z,44
2022-10-30T23:39:47.912Z,44
2022-10-30T23:44:48.164Z,44
2022-10-30T23:49:48.199Z,44
2022-10-30T23:54:48.182Z,44
2022-10-30T23:59:47.992Z,44
